createdAt,value
2022-08-21T00:02:26.513Z,4.10
2022-08-21T00:04:57.656Z,4.40
2022-08-21T00:07:27.169Z,4.50
2022-08-21T00:09:59.484Z,4.40
2022-08-21T00:12:27.970Z,4.00
2022-08-21T00:14:56.977Z,4.10
2022-08-21T00:17:29.021Z,4.00
2022-08-21T00:20:02.589Z,3.60
2022-08-21T00:22:31.100Z,4.20
2022-08-21T00:24:59.469Z,3.60
2022-08-21T00:27:27.868Z,4.00
2022-08-21T00:29:56.280Z,3.90
2022-08-21T00:32:27.629Z,4.00
2022-08-21T00:34:56.478Z,4.30
2022-08-21T00:37:25.769Z,3.80
2022-08-21T00:39:54.427Z,4.20
2022-08-21T00:42:23.051Z,3.90
2022-08-21T00:44:57.272Z,3.70
2022-08-21T00:47:26.149Z,5.00
2022-08-21T00:49:54.487Z,3.80
2022-08-21T00:52:26.801Z,4.20
2022-08-21T00:54:58.731Z,3.70
2022-08-21T00:57:45.985Z,3.60
2022-08-21T01:00:20.107Z,3.80
2022-08-21T01:02:48.782Z,3.80
2022-08-21T01:05:18.310Z,4.50
2022-08-21T01:07:46.762Z,4.40
2022-08-21T01:10:23.994Z,4.10
2022-08-21T01:12:57.273Z,4.60
2022-08-21T01:15:32.169Z,5.60
2022-08-21T01:18:00.549Z,6.00
2022-08-21T01:20:32.347Z,6.00
2022-08-21T01:23:04.941Z,4.90
2022-08-21T01:25:34.869Z,5.50
2022-08-21T01:28:11.091Z,5.60
2022-08-21T01:30:40.923Z,4.40
2022-08-21T01:33:09.162Z,4.50
2022-08-21T01:35:37.849Z,4.90
2022-08-21T01:38:06.851Z,4.70
2022-08-21T01:40:35.213Z,5.00
2022-08-21T01:43:03.820Z,5.00
2022-08-21T01:45:32.481Z,34.20
2022-08-21T01:48:00.771Z,7.00
2022-08-21T01:50:29.130Z,5.30
2022-08-21T01:52:57.508Z,5.70
2022-08-21T01:55:26.331Z,4.90
2022-08-21T01:57:55.092Z,5.10
2022-08-21T02:00:24.447Z,3.80
2022-08-21T02:02:53.202Z,4.40
2022-08-21T02:05:21.796Z,3.50
2022-08-21T02:07:53.320Z,3.90
2022-08-21T02:10:32.342Z,4.50
2022-08-21T02:13:01.735Z,4.10
2022-08-21T02:15:32.230Z,4.20
2022-08-21T02:18:02.602Z,4.00
2022-08-21T02:20:40.426Z,4.40
2022-08-21T02:23:10.961Z,4.70
2022-08-21T02:25:40.452Z,4.40
2022-08-21T02:28:12.643Z,5.00
2022-08-21T02:30:45.589Z,4.90
2022-08-21T02:33:15.451Z,4.50
2022-08-21T02:35:45.930Z,4.20
2022-08-21T02:38:22.297Z,4.00
2022-08-21T02:40:52.633Z,4.20
2022-08-21T02:43:23.781Z,3.60
2022-08-21T02:45:52.890Z,4.50
2022-08-21T02:48:24.278Z,3.50
2022-08-21T02:50:59.859Z,3.60
2022-08-21T02:53:30.102Z,4.40
2022-08-21T02:56:02.750Z,3.40
2022-08-21T02:58:35.409Z,3.00
2022-08-21T03:01:04.177Z,4.10
2022-08-21T03:03:32.393Z,3.40
2022-08-21T03:06:00.910Z,2.90
2022-08-21T03:08:29.362Z,3.20
2022-08-21T03:10:57.862Z,3.30
2022-08-21T03:13:26.121Z,3.40
2022-08-21T03:15:55.469Z,3.40
2022-08-21T03:18:26.390Z,3.60
2022-08-21T03:20:54.877Z,3.80
2022-08-21T03:23:23.832Z,3.20
2022-08-21T03:25:52.314Z,3.50
2022-08-21T03:28:26.070Z,3.40
2022-08-21T03:30:54.502Z,3.60
2022-08-21T03:33:23.424Z,3.60
2022-08-21T03:36:02.522Z,3.70
2022-08-21T03:38:32.358Z,3.60
2022-08-21T03:41:01.680Z,3.20
2022-08-21T03:43:31.100Z,3.90
2022-08-21T03:46:04.133Z,4.20
2022-08-21T03:48:34.776Z,4.10
2022-08-21T03:51:03.707Z,4.50
2022-08-21T03:53:31.542Z,4.50
2022-08-21T03:56:01.111Z,4.60
2022-08-21T03:58:30.002Z,4.80
2022-08-21T04:01:00.501Z,4.30
2022-08-21T04:03:29.493Z,4.10
2022-08-21T04:05:57.500Z,4.40
2022-08-21T04:08:25.982Z,4.00
2022-08-21T04:10:58.920Z,4.40
2022-08-21T04:13:28.789Z,5.10
2022-08-21T04:15:59.459Z,4.20
2022-08-21T04:18:27.590Z,4.40
2022-08-21T04:20:58.508Z,4.00
2022-08-21T04:23:27.165Z,4.00
2022-08-21T04:25:57.349Z,4.10
2022-08-21T04:28:29.293Z,3.80
2022-08-21T04:30:59.411Z,3.80
2022-08-21T04:33:27.587Z,3.80
2022-08-21T04:35:55.772Z,3.60
2022-08-21T04:38:24.241Z,4.10
2022-08-21T04:40:53.350Z,3.90
2022-08-21T04:43:24.278Z,3.70
2022-08-21T04:45:53.709Z,3.10
2022-08-21T04:48:24.850Z,3.30
2022-08-21T04:51:12.878Z,3.20
2022-08-21T04:54:10.211Z,3.30
2022-08-21T04:56:43.809Z,2.90
2022-08-21T04:59:17.111Z,3.20
2022-08-21T05:01:46.520Z,3.30
2022-08-21T05:04:19.683Z,3.10
2022-08-21T05:06:49.831Z,3.50
2022-08-21T05:09:19.482Z,3.50
2022-08-21T05:11:49.868Z,3.10
2022-08-21T05:14:18.545Z,2.90
2022-08-21T05:16:48.150Z,3.40
2022-08-21T05:19:16.631Z,3.40
2022-08-21T05:21:46.242Z,3.10
2022-08-21T05:24:15.563Z,3.00
2022-08-21T05:26:46.017Z,2.70
2022-08-21T05:29:17.013Z,2.70
2022-08-21T05:31:48.993Z,3.00
2022-08-21T05:34:22.172Z,2.80
2022-08-21T05:36:50.439Z,2.80
2022-08-21T05:39:19.145Z,2.70
2022-08-21T05:41:48.774Z,2.80
2022-08-21T05:44:17.314Z,2.60
2022-08-21T05:46:45.809Z,2.90
2022-08-21T05:49:14.026Z,3.20
2022-08-21T05:51:43.210Z,2.80
2022-08-21T05:54:12.277Z,2.70
2022-08-21T05:56:40.772Z,2.90
2022-08-21T05:59:09.435Z,2.70
2022-08-21T06:01:37.984Z,2.90
2022-08-21T06:04:06.603Z,3.20
2022-08-21T06:06:36.032Z,3.30
2022-08-21T06:09:05.686Z,2.60
2022-08-21T06:11:34.592Z,4.00
2022-08-21T06:14:03.187Z,3.00
2022-08-21T06:16:31.702Z,3.40
2022-08-21T06:19:02.817Z,3.40
2022-08-21T06:21:32.102Z,3.50
2022-08-21T06:23:59.822Z,5.50
2022-08-21T06:26:30.098Z,5.90
2022-08-21T06:28:58.980Z,4.50
2022-08-21T06:31:28.809Z,5.10
2022-08-21T06:33:57.587Z,5.20
2022-08-21T06:36:25.748Z,52.00
2022-08-21T06:38:53.934Z,5.20
2022-08-21T06:41:27.033Z,5.50
2022-08-21T06:43:57.031Z,4.90
2022-08-21T06:46:29.510Z,4.00
2022-08-21T06:48:59.466Z,4.70
2022-08-21T06:51:28.722Z,5.30
2022-08-21T06:53:59.373Z,4.60
2022-08-21T06:56:29.063Z,5.10
2022-08-21T06:58:57.441Z,6.80
2022-08-21T07:01:27.282Z,8.00
2022-08-21T07:03:55.748Z,6.80
2022-08-21T07:06:25.689Z,6.00
2022-08-21T07:08:53.828Z,5.70
2022-08-21T07:11:25.320Z,6.90
2022-08-21T07:13:55.351Z,4.50
2022-08-21T07:16:23.808Z,4.90
2022-08-21T07:18:52.083Z,3.80
2022-08-21T07:21:25.185Z,4.90
2022-08-21T07:23:55.232Z,4.10
2022-08-21T07:26:25.075Z,3.90
2022-08-21T07:28:54.270Z,3.80
2022-08-21T07:31:24.526Z,4.40
2022-08-21T07:33:53.481Z,4.00
2022-08-21T07:36:21.989Z,3.80
2022-08-21T07:38:52.675Z,2.90
2022-08-21T07:41:25.989Z,3.40
2022-08-21T07:43:54.802Z,2.90
2022-08-21T07:46:23.261Z,2.60
2022-08-21T07:48:51.890Z,2.60
2022-08-21T07:51:28.807Z,2.90
2022-08-21T07:53:59.370Z,2.60
2022-08-21T07:56:28.492Z,3.80
2022-08-21T07:58:58.675Z,3.10
2022-08-21T08:01:28.339Z,3.00
2022-08-21T08:03:57.061Z,2.60
2022-08-21T08:06:26.774Z,2.70
2022-08-21T08:08:54.849Z,2.50
2022-08-21T08:11:23.746Z,2.80
2022-08-21T08:13:53.562Z,2.60
2022-08-21T08:16:21.482Z,2.80
2022-08-21T08:18:51.030Z,2.60
2022-08-21T08:21:21.990Z,4.10
2022-08-21T08:23:50.960Z,3.40
2022-08-21T08:26:19.540Z,3.60
2022-08-21T08:28:48.500Z,3.30
2022-08-21T08:31:16.811Z,3.60
2022-08-21T08:33:45.196Z,3.00
2022-08-21T08:36:21.251Z,6.50
2022-08-21T08:38:50.141Z,6.30
2022-08-21T08:41:23.895Z,3.30
2022-08-21T08:44:09.667Z,2.90
2022-08-21T08:46:48.035Z,3.50
2022-08-21T08:49:35.201Z,3.40
2022-08-21T08:52:08.829Z,2.50
2022-08-21T08:55:02.709Z,2.60
2022-08-21T08:57:32.888Z,3.10
2022-08-21T09:00:11.279Z,2.30
2022-08-21T09:02:41.207Z,2.30
2022-08-21T09:05:26.109Z,4.40
2022-08-21T09:08:18.110Z,2.60
2022-08-21T09:11:26.504Z,3.00
2022-08-21T09:14:07.371Z,2.70
2022-08-21T09:17:02.999Z,2.80
2022-08-21T09:19:57.282Z,2.60
2022-08-21T09:22:55.378Z,3.60
2022-08-21T09:25:31.352Z,2.60
2022-08-21T09:27:59.589Z,2.80
2022-08-21T09:30:31.966Z,3.20
2022-08-21T09:33:01.139Z,3.40
2022-08-21T09:35:29.670Z,3.20
2022-08-21T09:38:05.213Z,2.80
2022-08-21T09:40:48.412Z,2.80
2022-08-21T09:43:22.835Z,2.90
2022-08-21T09:46:10.999Z,2.50
2022-08-21T09:48:49.352Z,2.30
2022-08-21T09:51:24.524Z,3.40
2022-08-21T09:54:11.752Z,3.00
2022-08-21T09:57:17.190Z,4.70
2022-08-21T09:59:47.662Z,2.90
2022-08-21T10:02:26.061Z,2.30
2022-08-21T10:05:09.411Z,2.50
2022-08-21T10:07:39.430Z,2.00
2022-08-21T10:10:16.972Z,3.20
2022-08-21T10:13:05.830Z,2.30
2022-08-21T10:15:46.253Z,2.50
2022-08-21T10:18:39.070Z,2.70
2022-08-21T10:21:15.821Z,2.50
2022-08-21T10:24:23.994Z,2.00
2022-08-21T10:27:29.542Z,2.40
2022-08-21T10:30:05.030Z,2.50
2022-08-21T10:32:36.789Z,2.60
2022-08-21T10:35:16.231Z,2.40
2022-08-21T10:38:10.480Z,3.40
2022-08-21T10:40:58.045Z,3.00
2022-08-21T10:43:58.167Z,2.70
2022-08-21T10:46:48.258Z,2.60
2022-08-21T10:50:05.699Z,2.40
2022-08-21T10:52:49.270Z,3.00
2022-08-21T10:55:22.391Z,2.10
2022-08-21T10:58:06.563Z,3.20
2022-08-21T11:00:49.217Z,2.60
2022-08-21T11:03:29.733Z,2.30
2022-08-21T11:06:10.908Z,3.00
2022-08-21T11:08:47.801Z,2.20
2022-08-21T11:13:56.425Z,2.30
2022-08-21T11:16:41.590Z,2.70
2022-08-21T11:19:17.571Z,2.90
2022-08-21T11:22:12.772Z,2.40
2022-08-21T11:25:04.340Z,2.40
2022-08-21T11:27:53.147Z,2.30
2022-08-21T11:30:22.840Z,2.90
2022-08-21T11:33:10.579Z,3.10
2022-08-21T11:38:31.152Z,9.30
2022-08-21T11:43:44.374Z,2.30
2022-08-21T11:49:05.179Z,2.40
2022-08-21T11:51:50.331Z,2.40
2022-08-21T11:54:38.611Z,3.90
2022-08-21T11:57:19.319Z,2.80
2022-08-21T12:00:10.461Z,2.90
2022-08-21T12:02:58.049Z,2.50
2022-08-21T12:05:40.732Z,2.20
2022-08-21T12:08:15.351Z,2.70
2022-08-21T12:11:01.010Z,2.60
2022-08-21T12:13:40.209Z,2.40
2022-08-21T12:16:17.229Z,2.70
2022-08-21T12:18:45.413Z,3.00
2022-08-21T12:21:29.491Z,3.10
2022-08-21T12:24:05.823Z,3.30
2022-08-21T12:26:50.270Z,2.60
2022-08-21T12:29:37.180Z,2.10
2022-08-21T12:32:43.765Z,1.90
2022-08-21T12:35:24.936Z,4.50
2022-08-21T12:38:28.550Z,2.60
2022-08-21T12:40:59.170Z,2.10
2022-08-21T12:43:42.605Z,2.20
2022-08-21T12:46:23.506Z,2.90
2022-08-21T12:49:02.702Z,2.10
2022-08-21T12:51:45.135Z,2.40
2022-08-21T12:54:27.941Z,2.70
2022-08-21T12:57:05.004Z,2.60
2022-08-21T12:59:38.096Z,2.40
2022-08-21T13:02:20.611Z,2.60
2022-08-21T13:04:50.756Z,2.50
2022-08-21T13:07:31.402Z,2.40
2022-08-21T13:10:15.969Z,2.60
2022-08-21T13:12:46.164Z,3.30
2022-08-21T13:15:15.482Z,2.30
2022-08-21T13:17:49.807Z,2.30
2022-08-21T13:20:29.441Z,2.20
2022-08-21T13:22:59.154Z,2.20
2022-08-21T13:25:30.290Z,2.30
2022-08-21T13:28:14.150Z,2.80
2022-08-21T13:30:56.371Z,2.70
2022-08-21T13:33:36.318Z,2.60
2022-08-21T13:36:26.988Z,2.50
2022-08-21T13:41:28.979Z,2.40
2022-08-21T13:44:04.401Z,2.50
2022-08-21T13:46:35.433Z,3.20
2022-08-21T13:49:06.658Z,2.40
2022-08-21T13:51:36.429Z,3.50
2022-08-21T13:54:40.559Z,2.80
2022-08-21T13:57:29.589Z,2.90
2022-08-21T14:00:13.992Z,2.10
2022-08-21T14:02:44.937Z,2.90
2022-08-21T14:05:34.768Z,2.60
2022-08-21T14:08:30.232Z,2.10
2022-08-21T14:11:00.830Z,2.60
2022-08-21T14:13:37.999Z,2.70
2022-08-21T14:16:18.148Z,3.80
2022-08-21T14:18:50.422Z,2.70
2022-08-21T14:21:37.749Z,2.30
2022-08-21T14:24:26.809Z,2.50
2022-08-21T14:27:02.471Z,2.70
2022-08-21T14:29:41.944Z,2.60
2022-08-21T14:32:25.560Z,2.70
2022-08-21T14:34:55.150Z,2.70
2022-08-21T14:37:27.371Z,2.90
2022-08-21T14:39:55.856Z,2.60
2022-08-21T14:42:25.462Z,2.60
2022-08-21T14:44:59.673Z,3.60
2022-08-21T14:47:29.832Z,2.60
2022-08-21T14:49:58.473Z,2.90
2022-08-21T14:52:27.002Z,3.60
2022-08-21T14:54:56.612Z,4.00
2022-08-21T14:57:29.449Z,3.20
2022-08-21T15:00:01.729Z,3.30
2022-08-21T15:02:31.071Z,4.40
2022-08-21T15:05:00.393Z,2.80
2022-08-21T15:07:28.741Z,3.00
2022-08-21T15:09:57.118Z,2.90
2022-08-21T15:12:26.548Z,3.00
2022-08-21T15:14:54.811Z,3.40
2022-08-21T15:17:23.182Z,3.50
2022-08-21T15:19:51.690Z,3.60
2022-08-21T15:22:27.667Z,3.90
2022-08-21T15:24:57.701Z,3.70
2022-08-21T15:27:25.911Z,3.50
2022-08-21T15:29:55.406Z,4.50
2022-08-21T15:32:30.318Z,4.20
2022-08-21T15:35:00.264Z,3.90
2022-08-21T15:37:28.845Z,4.00
2022-08-21T15:39:57.187Z,3.70
2022-08-21T15:42:29.951Z,3.00
2022-08-21T15:44:58.982Z,3.50
2022-08-21T15:47:31.863Z,3.40
2022-08-21T15:50:00.172Z,3.00
2022-08-21T15:52:28.494Z,2.80
2022-08-21T15:54:56.817Z,2.60
2022-08-21T15:57:27.351Z,3.10
2022-08-21T15:59:59.019Z,3.60
2022-08-21T16:02:31.080Z,2.80
2022-08-21T16:05:00.001Z,3.70
2022-08-21T16:07:29.370Z,4.00
2022-08-21T16:09:58.167Z,3.90
2022-08-21T16:12:32.626Z,3.80
2022-08-21T16:15:03.169Z,4.20
2022-08-21T16:17:34.784Z,4.90
2022-08-21T16:20:07.847Z,4.20
2022-08-21T16:22:44.535Z,4.70
2022-08-21T16:25:15.321Z,5.50
2022-08-21T16:27:51.232Z,5.00
2022-08-21T16:30:22.591Z,4.90
2022-08-21T16:32:51.833Z,6.30
2022-08-21T16:35:22.097Z,12.00
2022-08-21T16:37:53.211Z,11.20
2022-08-21T16:40:27.260Z,5.20
2022-08-21T16:42:56.410Z,5.00
2022-08-21T16:45:27.813Z,5.00
2022-08-21T16:47:59.598Z,4.70
2022-08-21T16:50:28.600Z,5.90
2022-08-21T16:52:57.592Z,7.10
2022-08-21T16:55:25.862Z,9.10
2022-08-21T16:57:56.090Z,12.10
2022-08-21T17:00:24.403Z,6.20
2022-08-21T17:02:55.742Z,5.20
2022-08-21T17:05:24.454Z,5.90
2022-08-21T17:07:53.117Z,8.20
2022-08-21T17:10:21.700Z,8.40
2022-08-21T17:12:57.080Z,9.80
2022-08-21T17:15:31.360Z,5.30
2022-08-21T17:18:00.869Z,7.60
2022-08-21T17:20:30.471Z,19.70
2022-08-21T17:22:58.940Z,7.70
2022-08-21T17:25:28.050Z,8.30
2022-08-21T17:27:58.406Z,4.90
2022-08-21T17:30:27.110Z,5.40
2022-08-21T17:32:58.060Z,4.70
2022-08-21T17:35:27.089Z,3.80
2022-08-21T17:37:55.825Z,4.30
2022-08-21T17:40:26.031Z,4.40
2022-08-21T17:42:54.425Z,4.50
2022-08-21T17:45:22.975Z,4.50
2022-08-21T17:47:52.677Z,4.50
2022-08-21T17:50:22.876Z,4.40
2022-08-21T17:52:52.817Z,4.30
2022-08-21T17:55:21.491Z,3.70
2022-08-21T17:57:51.937Z,5.60
2022-08-21T18:00:20.772Z,6.50
2022-08-21T18:02:59.335Z,5.10
2022-08-21T18:05:28.489Z,5.00
2022-08-21T18:07:57.222Z,4.40
2022-08-21T18:10:26.410Z,6.40
2022-08-21T18:12:54.747Z,5.20
2022-08-21T18:15:23.101Z,4.50
2022-08-21T18:17:53.399Z,4.50
2022-08-21T18:20:23.429Z,4.80
2022-08-21T18:22:52.403Z,5.30
2022-08-21T18:25:22.449Z,15.30
2022-08-21T18:27:50.695Z,9.60
2022-08-21T18:30:21.461Z,7.70
2022-08-21T18:32:50.950Z,7.20
2022-08-21T18:35:19.861Z,6.30
2022-08-21T18:37:48.107Z,7.10
2022-08-21T18:40:16.554Z,8.40
2022-08-21T18:42:55.144Z,9.60
2022-08-21T18:45:24.777Z,5.60
2022-08-21T18:47:56.871Z,7.00
2022-08-21T18:50:27.882Z,7.10
2022-08-21T18:52:58.028Z,6.90
2022-08-21T18:55:27.493Z,6.40
2022-08-21T18:57:58.460Z,7.00
2022-08-21T19:00:30.954Z,7.30
2022-08-21T19:02:59.831Z,7.20
2022-08-21T19:05:28.529Z,7.00
2022-08-21T19:07:57.821Z,7.50
2022-08-21T19:10:30.449Z,8.50
2022-08-21T19:12:59.707Z,7.70
2022-08-21T19:18:28.239Z,7.80
2022-08-21T19:20:57.637Z,7.60
2022-08-21T19:23:29.680Z,8.20
2022-08-21T19:26:01.457Z,8.80
2022-08-21T19:28:36.679Z,9.20
2022-08-21T19:31:17.462Z,9.30
2022-08-21T19:33:57.585Z,8.90
2022-08-21T19:36:32.365Z,7.60
2022-08-21T19:39:01.569Z,8.30
2022-08-21T19:41:40.618Z,14.40
2022-08-21T19:44:16.104Z,32.00
2022-08-21T19:46:45.701Z,11.10
2022-08-21T19:49:17.730Z,8.70
2022-08-21T19:51:48.502Z,9.70
2022-08-21T19:54:22.209Z,10.20
2022-08-21T19:56:54.337Z,9.20
2022-08-21T19:59:24.619Z,9.20
2022-08-21T20:01:54.533Z,9.30
2022-08-21T20:04:24.032Z,10.30
2022-08-21T20:06:56.212Z,9.80
2022-08-21T20:09:24.256Z,10.00
2022-08-21T20:11:58.859Z,9.30
2022-08-21T20:14:33.229Z,10.00
2022-08-21T20:17:05.752Z,11.90
2022-08-21T20:19:35.421Z,12.60
2022-08-21T20:22:04.605Z,14.60
2022-08-21T20:24:34.110Z,13.20
2022-08-21T20:27:06.108Z,14.30
2022-08-21T20:29:39.343Z,13.20
2022-08-21T20:34:59.085Z,12.70
2022-08-21T20:37:36.585Z,11.10
2022-08-21T20:40:11.014Z,10.30
2022-08-21T20:42:44.755Z,9.90
2022-08-21T20:45:22.759Z,10.10
2022-08-21T20:47:54.922Z,11.60
2022-08-21T20:50:28.070Z,10.90
2022-08-21T20:53:24.242Z,11.20
2022-08-21T20:55:53.441Z,11.60
2022-08-21T20:58:37.390Z,12.40
2022-08-21T21:01:09.909Z,12.30
2022-08-21T21:03:53.252Z,11.20
2022-08-21T21:06:27.452Z,10.70
2022-08-21T21:09:08.191Z,11.10
2022-08-21T21:11:58.860Z,11.90
2022-08-21T21:14:36.273Z,11.50
2022-08-21T21:17:09.769Z,10.70
2022-08-21T21:19:56.379Z,10.20
2022-08-21T21:22:36.899Z,10.20
2022-08-21T21:25:08.180Z,10.00
2022-08-21T21:27:55.772Z,10.70
2022-08-21T21:30:32.791Z,10.50
2022-08-21T21:33:01.787Z,9.90
2022-08-21T21:35:48.982Z,9.50
2022-08-21T21:38:29.340Z,10.10
2022-08-21T21:41:06.650Z,9.80
2022-08-21T21:44:00.429Z,9.60
2022-08-21T21:46:48.598Z,11.50
2022-08-21T21:52:35.130Z,11.20
2022-08-21T21:55:08.619Z,11.60
2022-08-21T21:57:49.366Z,11.10
2022-08-21T22:00:24.258Z,10.70
2022-08-21T22:03:25.332Z,11.10
2022-08-21T22:06:13.781Z,12.60
2022-08-21T22:12:28.578Z,11.70
2022-08-21T22:14:57.868Z,11.10
2022-08-21T22:17:41.186Z,12.10
2022-08-21T22:20:27.810Z,11.20
2022-08-21T22:22:57.761Z,12.20
2022-08-21T22:25:33.430Z,11.90
2022-08-21T22:28:14.049Z,13.10
2022-08-21T22:30:49.531Z,12.30
2022-08-21T22:33:25.312Z,12.60
2022-08-21T22:35:58.695Z,12.00
2022-08-21T22:38:27.021Z,12.30
2022-08-21T22:41:17.641Z,13.40
2022-08-21T22:44:06.954Z,13.30
2022-08-21T22:46:51.052Z,12.20
2022-08-21T22:49:31.182Z,11.50
2022-08-21T22:52:35.296Z,11.40
2022-08-21T22:55:31.832Z,10.60
2022-08-21T22:58:12.151Z,10.50
2022-08-21T23:01:02.646Z,12.30
2022-08-21T23:03:57.542Z,11.40
2022-08-21T23:06:52.648Z,11.10
2022-08-21T23:10:00.409Z,10.80
2022-08-21T23:12:38.506Z,11.20
2022-08-21T23:15:17.917Z,11.00
2022-08-21T23:18:01.063Z,11.90
2022-08-21T23:20:56.219Z,10.30
2022-08-21T23:23:29.580Z,10.30
2022-08-21T23:35:22.230Z,13.70
2022-08-21T23:38:20.526Z,13.10
2022-08-21T23:40:56.201Z,14.50
2022-08-21T23:43:59.600Z,14.20
2022-08-21T23:46:37.528Z,13.10
2022-08-21T23:49:24.337Z,14.20
2022-08-21T23:52:14.831Z,15.40
2022-08-21T23:55:10.631Z,14.80
2022-08-21T23:58:23.742Z,16.30
